sensor_id;sensor_type;location;lat;lon;timestamp;pressure;altitude;pressure_sealevel;temperature;humidity
20860;BME280;10590;48.154;11.514;2022-07-21T00:00:59;95965.53;;;20.10;100.00
20860;BME280;10590;48.154;11.514;2022-07-21T00:06:01;95973.84;;;20.21;100.00
20860;BME280;10590;48.154;11.514;2022-07-21T00:11:04;95976.16;;;19.82;100.00
20860;BME280;10590;48.154;11.514;2022-07-21T00:16:07;95972.16;;;20.09;100.00
20860;BME280;10590;48.154;11.514;2022-07-21T00:21:08;95969.00;;;19.70;100.00
20860;BME280;10590;48.154;11.514;2022-07-21T00:26:12;95987.00;;;20.12;100.00
20860;BME280;10590;48.154;11.514;2022-07-21T00:31:15;95998.00;;;20.16;100.00
20860;BME280;10590;48.154;11.514;2022-07-21T00:36:17;96006.44;;;20.00;100.00
20860;BME280;10590;48.154;11.514;2022-07-21T00:41:20;96008.06;;;20.04;100.00
20860;BME280;10590;48.154;11.514;2022-07-21T00:46:22;96020.94;;;20.04;100.00
20860;BME280;10590;48.154;11.514;2022-07-21T00:51:23;96012.69;;;19.67;100.00
20860;BME280;10590;48.154;11.514;2022-07-21T00:56:27;96018.28;;;20.11;100.00
20860;BME280;10590;48.154;11.514;2022-07-21T01:01:28;96017.50;;;20.10;100.00
20860;BME280;10590;48.154;11.514;2022-07-21T01:06:30;96022.53;;;20.05;100.00
20860;BME280;10590;48.154;11.514;2022-07-21T01:11:33;96023.31;;;20.05;100.00
20860;BME280;10590;48.154;11.514;2022-07-21T01:16:35;96016.22;;;20.01;100.00
20860;BME280;10590;48.154;11.514;2022-07-21T01:21:39;96017.84;;;20.05;100.00
20860;BME280;10590;48.154;11.514;2022-07-21T01:26:43;96012.03;;;20.10;100.00
20860;BME280;10590;48.154;11.514;2022-07-21T01:31:47;95999.91;;;20.11;100.00
20860;BME280;10590;48.154;11.514;2022-07-21T01:36:50;95989.28;;;20.03;100.00
20860;BME280;10590;48.154;11.514;2022-07-21T01:41:52;95978.38;;;19.69;100.00
20860;BME280;10590;48.154;11.514;2022-07-21T01:46:53;95976.34;;;20.00;100.00
20860;BME280;10590;48.154;11.514;2022-07-21T01:51:57;95999.16;;;20.15;100.00
20860;BME280;10590;48.154;11.514;2022-07-21T01:56:58;96007.88;;;20.27;100.00
20860;BME280;10590;48.154;11.514;2022-07-21T02:02:00;96003.94;;;20.21;100.00
20860;BME280;10590;48.154;11.514;2022-07-21T02:07:03;95993.28;;;20.13;100.00
20860;BME280;10590;48.154;11.514;2022-07-21T02:12:05;95997.75;;;20.31;100.00
20860;BME280;10590;48.154;11.514;2022-07-21T02:17:07;96000.91;;;20.33;100.00
20860;BME280;10590;48.154;11.514;2022-07-21T02:22:10;96000.16;;;20.37;100.00
20860;BME280;10590;48.154;11.514;2022-07-21T02:27:11;96021.25;;;20.32;100.00
20860;BME280;10590;48.154;11.514;2022-07-21T02:32:13;96021.25;;;20.32;100.00
20860;BME280;10590;48.154;11.514;2022-07-21T02:37:16;96023.63;;;20.38;100.00
20860;BME280;10590;48.154;11.514;2022-07-21T02:42:17;96030.97;;;20.30;100.00
20860;BME280;10590;48.154;11.514;2022-07-21T02:47:19;96028.59;;;20.25;100.00
20860;BME280;10590;48.154;11.514;2022-07-21T02:52:22;96005.19;;;19.94;100.00
20860;BME280;10590;48.154;11.514;2022-07-21T02:57:24;96016.03;;;20.20;100.00
20860;BME280;10590;48.154;11.514;2022-07-21T03:02:25;96012.53;;;20.23;100.00
20860;BME280;10590;48.154;11.514;2022-07-21T03:07:28;96019.19;;;20.22;100.00
20860;BME280;10590;48.154;11.514;2022-07-21T03:12:30;96013.75;;;20.26;100.00
20860;BME280;10590;48.154;11.514;2022-07-21T03:17:32;96020.69;;;20.16;100.00
20860;BME280;10590;48.154;11.514;2022-07-21T03:22:35;96016.41;;;20.19;100.00
20860;BME280;10590;48.154;11.514;2022-07-21T03:27:36;96014.19;;;20.31;100.00
20860;BME280;10590;48.154;11.514;2022-07-21T03:32:38;96007.88;;;20.27;100.00
20860;BME280;10590;48.154;11.514;2022-07-21T03:37:42;96005.97;;;19.94;100.00
20860;BME280;10590;48.154;11.514;2022-07-21T03:42:44;96000.50;;;20.28;100.00
20860;BME280;10590;48.154;11.514;2022-07-21T03:47:45;96019.25;;;20.29;100.00
20860;BME280;10590;48.154;11.514;2022-07-21T03:52:48;96043.50;;;20.31;100.00
20860;BME280;10590;48.154;11.514;2022-07-21T03:57:53;96041.97;;;20.33;100.00
20860;BME280;10590;48.154;11.514;2022-07-21T04:02:56;96058.03;;;20.39;100.00
20860;BME280;10590;48.154;11.514;2022-07-21T04:07:59;96053.66;;;20.30;100.00
20860;BME280;10590;48.154;11.514;2022-07-21T04:13:02;96054.44;;;20.31;100.00
20860;BME280;10590;48.154;11.514;2022-07-21T04:18:05;96053.16;;;20.21;100.00
20860;BME280;10590;48.154;11.514;2022-07-21T04:23:09;96061.84;;;20.30;100.00
20860;BME280;10590;48.154;11.514;2022-07-21T04:28:10;96064.31;;;20.43;100.00
20860;BME280;10590;48.154;11.514;2022-07-21T04:33:12;96074.09;;;20.40;100.00
20860;BME280;10590;48.154;11.514;2022-07-21T04:38:15;96077.22;;;20.42;100.00
20860;BME280;10590;48.154;11.514;2022-07-21T04:43:18;96079.09;;;20.34;99.06
20860;BME280;10590;48.154;11.514;2022-07-21T04:48:20;96084.13;;;20.66;97.84
20860;BME280;10590;48.154;11.514;2022-07-21T04:53:23;96093.50;;;20.62;95.97
20860;BME280;10590;48.154;11.514;2022-07-21T04:58:24;96088.53;;;20.37;97.33
20860;BME280;10590;48.154;11.514;2022-07-21T05:03:26;96104.25;;;20.44;97.93
20860;BME280;10590;48.154;11.514;2022-07-21T05:08:29;96112.38;;;20.37;97.91
20860;BME280;10590;48.154;11.514;2022-07-21T05:13:31;96117.69;;;20.56;96.27
20860;BME280;10590;48.154;11.514;2022-07-21T05:18:33;96116.56;;;20.61;96.40
20860;BME280;10590;48.154;11.514;2022-07-21T05:23:36;96128.41;;;20.72;94.94
20860;BME280;10590;48.154;11.514;2022-07-21T05:28:37;96133.41;;;20.66;95.36
20860;BME280;10590;48.154;11.514;2022-07-21T05:33:39;96142.59;;;20.84;94.60
20860;BME280;10590;48.154;11.514;2022-07-21T05:38:42;96138.84;;;21.00;94.06
20860;BME280;10590;48.154;11.514;2022-07-21T05:43:44;96135.97;;;21.30;91.70
20860;BME280;10590;48.154;11.514;2022-07-21T05:48:45;96135.94;;;21.26;90.58
20860;BME280;10590;48.154;11.514;2022-07-21T05:53:48;96148.63;;;21.45;89.81
20860;BME280;10590;48.154;11.514;2022-07-21T05:58:50;96153.53;;;21.25;91.38
20860;BME280;10590;48.154;11.514;2022-07-21T06:03:52;96151.47;;;21.12;93.18
20860;BME280;10590;48.154;11.514;2022-07-21T06:08:54;96155.06;;;21.19;92.08
20860;BME280;10590;48.154;11.514;2022-07-21T06:13:56;96161.34;;;21.23;92.44
20860;BME280;10590;48.154;11.514;2022-07-21T06:18:58;96172.75;;;21.80;87.98
20860;BME280;10590;48.154;11.514;2022-07-21T06:24:03;96169.94;;;21.66;88.82
20860;BME280;10590;48.154;11.514;2022-07-21T06:29:04;96169.09;;;21.59;89.11
20860;BME280;10590;48.154;11.514;2022-07-21T06:34:06;96172.72;;;21.70;89.15
20860;BME280;10590;48.154;11.514;2022-07-21T06:39:11;96180.91;;;21.66;90.46
20860;BME280;10590;48.154;11.514;2022-07-21T06:44:13;96195.94;;;21.87;89.93
20860;BME280;10590;48.154;11.514;2022-07-21T06:49:15;96193.44;;;21.67;91.28
20860;BME280;10590;48.154;11.514;2022-07-21T06:54:18;96194.75;;;21.88;89.33
20860;BME280;10590;48.154;11.514;2022-07-21T06:59:19;96186.66;;;22.09;87.82
20860;BME280;10590;48.154;11.514;2022-07-21T07:04:21;96202.72;;;22.07;87.34
20860;BME280;10590;48.154;11.514;2022-07-21T07:09:24;96201.03;;;21.88;88.34
20860;BME280;10590;48.154;11.514;2022-07-21T07:14:26;96205.81;;;21.47;88.47
20860;BME280;10590;48.154;11.514;2022-07-21T07:19:29;96211.84;;;21.67;88.39
20860;BME280;10590;48.154;11.514;2022-07-21T07:24:35;96209.66;;;21.90;85.76
20860;BME280;10590;48.154;11.514;2022-07-21T07:29:36;96207.59;;;22.39;82.39
20860;BME280;10590;48.154;11.514;2022-07-21T07:34:38;96198.25;;;22.54;82.06
20860;BME280;10590;48.154;11.514;2022-07-21T07:39:42;96213.00;;;23.26;76.67
20860;BME280;10590;48.154;11.514;2022-07-21T07:44:43;96206.19;;;22.77;79.07
20860;BME280;10590;48.154;11.514;2022-07-21T07:49:46;96217.03;;;22.41;81.58
20860;BME280;10590;48.154;11.514;2022-07-21T07:54:52;96218.84;;;22.16;81.90
20860;BME280;10590;48.154;11.514;2022-07-21T07:59:54;96214.75;;;22.58;79.46
20860;BME280;10590;48.154;11.514;2022-07-21T08:04:55;96220.59;;;22.45;78.56
20860;BME280;10590;48.154;11.514;2022-07-21T08:09:58;96211.34;;;22.89;76.04
20860;BME280;10590;48.154;11.514;2022-07-21T08:15:00;96220.63;;;22.60;77.13
20860;BME280;10590;48.154;11.514;2022-07-21T08:20:03;96228.56;;;22.72;77.32
20860;BME280;10590;48.154;11.514;2022-07-21T08:25:07;96224.16;;;22.53;78.73
20860;BME280;10590;48.154;11.514;2022-07-21T08:30:10;96221.06;;;22.65;79.05
20860;BME280;10590;48.154;11.514;2022-07-21T08:35:11;96222.91;;;22.33;78.51
20860;BME280;10590;48.154;11.514;2022-07-21T08:40:14;96221.09;;;22.69;77.13
20860;BME280;10590;48.154;11.514;2022-07-21T08:45:16;96225.16;;;22.20;80.20
20860;BME280;10590;48.154;11.514;2022-07-21T08:50:18;96231.44;;;22.20;81.46
20860;BME280;10590;48.154;11.514;2022-07-21T08:55:21;96235.00;;;22.28;81.24
20860;BME280;10590;48.154;11.514;2022-07-21T09:00:23;96237.91;;;22.57;78.64
20860;BME280;10590;48.154;11.514;2022-07-21T09:05:25;96235.81;;;22.32;79.68
20860;BME280;10590;48.154;11.514;2022-07-21T09:10:32;96242.41;;;22.20;80.47
20860;BME280;10590;48.154;11.514;2022-07-21T09:15:34;96242.91;;;22.37;78.47
20860;BME280;10590;48.154;11.514;2022-07-21T09:20:37;96239.16;;;22.08;80.08
20860;BME280;10590;48.154;11.514;2022-07-21T09:25:42;96248.72;;;22.24;79.99
20860;BME280;10590;48.154;11.514;2022-07-21T09:30:49;96249.22;;;21.86;82.54
20860;BME280;10590;48.154;11.514;2022-07-21T09:35:59;96252.50;;;21.54;85.58
20860;BME280;10590;48.154;11.514;2022-07-21T09:41:11;96248.28;;;22.19;82.43
20860;BME280;10590;48.154;11.514;2022-07-21T09:46:15;96253.75;;;22.15;81.34
20860;BME280;10590;48.154;11.514;2022-07-21T09:51:29;96260.75;;;21.58;85.58
20860;BME280;10590;48.154;11.514;2022-07-21T09:56:37;96275.88;;;21.07;93.16
20860;BME280;10590;48.154;11.514;2022-07-21T10:01:39;96273.09;;;20.43;100.00
20860;BME280;10590;48.154;11.514;2022-07-21T10:06:41;96275.25;;;20.00;100.00
20860;BME280;10590;48.154;11.514;2022-07-21T10:11:45;96281.53;;;19.78;100.00
20860;BME280;10590;48.154;11.514;2022-07-21T10:16:47;96273.03;;;19.83;100.00
20860;BME280;10590;48.154;11.514;2022-07-21T10:21:53;96283.97;;;19.83;100.00
20860;BME280;10590;48.154;11.514;2022-07-21T10:27:05;96275.03;;;19.86;100.00
20860;BME280;10590;48.154;11.514;2022-07-21T10:32:10;96276.41;;;19.76;100.00
20860;BME280;10590;48.154;11.514;2022-07-21T10:37:47;96273.53;;;19.92;100.00
20860;BME280;10590;48.154;11.514;2022-07-21T10:48:47;96268.34;;;19.83;100.00
20860;BME280;10590;48.154;11.514;2022-07-21T10:54:16;96276.66;;;20.17;100.00
20860;BME280;10590;48.154;11.514;2022-07-21T10:59:19;96270.66;;;20.61;100.00
20860;BME280;10590;48.154;11.514;2022-07-21T11:04:21;96267.88;;;20.31;100.00
20860;BME280;10590;48.154;11.514;2022-07-21T11:09:25;96273.28;;;20.54;100.00
20860;BME280;10590;48.154;11.514;2022-07-21T11:14:39;96263.72;;;20.41;100.00
20860;BME280;10590;48.154;11.514;2022-07-21T11:19:43;96278.81;;;20.31;100.00
20860;BME280;10590;48.154;11.514;2022-07-21T11:24:50;96275.06;;;20.43;100.00
20860;BME280;10590;48.154;11.514;2022-07-21T11:29:57;96262.97;;;20.44;100.00
20860;BME280;10590;48.154;11.514;2022-07-21T11:35:01;96259.34;;;20.66;100.00
20860;BME280;10590;48.154;11.514;2022-07-21T11:40:04;96257.97;;;20.79;100.00
20860;BME280;10590;48.154;11.514;2022-07-21T11:45:10;96264.38;;;20.91;100.00
20860;BME280;10590;48.154;11.514;2022-07-21T11:50:12;96265.47;;;20.86;100.00
20860;BME280;10590;48.154;11.514;2022-07-21T11:55:14;96259.63;;;20.88;100.00
20860;BME280;10590;48.154;11.514;2022-07-21T12:00:17;96246.25;;;20.82;100.00
20860;BME280;10590;48.154;11.514;2022-07-21T12:05:19;96248.53;;;20.77;100.00
20860;BME280;10590;48.154;11.514;2022-07-21T12:10:26;96249.63;;;21.06;99.52
20860;BME280;10590;48.154;11.514;2022-07-21T12:15:30;96246.97;;;21.50;98.08
20860;BME280;10590;48.154;11.514;2022-07-21T12:20:35;96251.53;;;21.84;90.45
20860;BME280;10590;48.154;11.514;2022-07-21T12:25:44;96247.97;;;21.76;89.55
20860;BME280;10590;48.154;11.514;2022-07-21T12:30:49;96250.34;;;21.77;90.03
20860;BME280;10590;48.154;11.514;2022-07-21T12:35:58;96246.00;;;21.76;91.56
20860;BME280;10590;48.154;11.514;2022-07-21T12:41:00;96248.25;;;22.15;88.87
20860;BME280;10590;48.154;11.514;2022-07-21T12:46:09;96238.91;;;22.27;86.51
20860;BME280;10590;48.154;11.514;2022-07-21T12:51:13;96227.44;;;22.87;82.39
20860;BME280;10590;48.154;11.514;2022-07-21T12:56:16;96231.13;;;22.40;77.24
20860;BME280;10590;48.154;11.514;2022-07-21T13:01:21;96228.34;;;23.41;73.92
20860;BME280;10590;48.154;11.514;2022-07-21T13:06:23;96224.41;;;23.32;71.92
20860;BME280;10590;48.154;11.514;2022-07-21T13:11:24;96217.75;;;23.50;71.32
20860;BME280;10590;48.154;11.514;2022-07-21T13:16:27;96212.59;;;23.38;69.93
20860;BME280;10590;48.154;11.514;2022-07-21T13:21:30;96215.63;;;22.87;68.21
20860;BME280;10590;48.154;11.514;2022-07-21T13:26:31;96222.72;;;22.84;75.83
20860;BME280;10590;48.154;11.514;2022-07-21T13:31:35;96219.88;;;22.63;72.53
20860;BME280;10590;48.154;11.514;2022-07-21T13:36:37;96220.84;;;22.19;73.58
20860;BME280;10590;48.154;11.514;2022-07-21T13:41:39;96203.94;;;22.97;71.02
20860;BME280;10590;48.154;11.514;2022-07-21T13:46:43;96208.97;;;22.84;70.95
20860;BME280;10590;48.154;11.514;2022-07-21T13:51:45;96205.53;;;23.12;70.61
20860;BME280;10590;48.154;11.514;2022-07-21T13:56:47;96215.97;;;22.71;71.76
20860;BME280;10590;48.154;11.514;2022-07-21T14:01:50;96213.22;;;22.60;75.33
20860;BME280;10590;48.154;11.514;2022-07-21T14:06:51;96204.88;;;22.39;74.78
20860;BME280;10590;48.154;11.514;2022-07-21T14:11:53;96204.41;;;23.67;70.80
20860;BME280;10590;48.154;11.514;2022-07-21T14:16:57;96200.00;;;24.12;68.65
20860;BME280;10590;48.154;11.514;2022-07-21T14:21:59;96195.34;;;24.02;68.18
20860;BME280;10590;48.154;11.514;2022-07-21T14:27:01;96195.91;;;24.70;64.98
20860;BME280;10590;48.154;11.514;2022-07-21T14:32:04;96176.69;;;25.26;61.51
20860;BME280;10590;48.154;11.514;2022-07-21T14:37:06;96173.91;;;25.33;63.39
20860;BME280;10590;48.154;11.514;2022-07-21T14:42:08;96177.59;;;25.05;62.90
20860;BME280;10590;48.154;11.514;2022-07-21T14:47:11;96170.91;;;25.06;63.96
20860;BME280;10590;48.154;11.514;2022-07-21T14:52:13;96165.56;;;24.81;62.67
20860;BME280;10590;48.154;11.514;2022-07-21T14:57:15;96167.38;;;25.06;62.43
20860;BME280;10590;48.154;11.514;2022-07-21T15:02:18;96165.97;;;24.76;61.97
20860;BME280;10590;48.154;11.514;2022-07-21T15:07:19;96156.75;;;25.04;59.06
20860;BME280;10590;48.154;11.514;2022-07-21T15:12:21;96160.56;;;25.28;56.32
20860;BME280;10590;48.154;11.514;2022-07-21T15:17:24;96157.13;;;25.10;56.74
20860;BME280;10590;48.154;11.514;2022-07-21T15:22:28;96158.41;;;25.46;58.30
20860;BME280;10590;48.154;11.514;2022-07-21T15:27:30;96149.22;;;25.64;59.07
20860;BME280;10590;48.154;11.514;2022-07-21T15:32:33;96147.63;;;25.66;57.09
20860;BME280;10590;48.154;11.514;2022-07-21T15:37:35;96146.53;;;25.53;56.81
20860;BME280;10590;48.154;11.514;2022-07-21T15:42:39;96142.94;;;26.01;57.31
20860;BME280;10590;48.154;11.514;2022-07-21T15:47:43;96142.03;;;25.29;57.27
20860;BME280;10590;48.154;11.514;2022-07-21T15:52:45;96129.28;;;24.90;59.42
20860;BME280;10590;48.154;11.514;2022-07-21T15:57:47;96133.63;;;24.87;60.27
20860;BME280;10590;48.154;11.514;2022-07-21T16:02:50;96123.47;;;24.77;59.80
20860;BME280;10590;48.154;11.514;2022-07-21T16:07:54;96124.91;;;24.96;61.43
20860;BME280;10590;48.154;11.514;2022-07-21T16:12:56;96123.63;;;25.60;58.47
20860;BME280;10590;48.154;11.514;2022-07-21T16:17:59;96120.53;;;25.02;59.69
20860;BME280;10590;48.154;11.514;2022-07-21T16:23:01;96115.53;;;24.83;61.12
20860;BME280;10590;48.154;11.514;2022-07-21T16:28:03;96115.22;;;24.73;61.57
20860;BME280;10590;48.154;11.514;2022-07-21T16:33:06;96109.09;;;24.44;62.14
20860;BME280;10590;48.154;11.514;2022-07-21T16:38:08;96101.13;;;24.61;61.72
20860;BME280;10590;48.154;11.514;2022-07-21T16:43:09;96094.34;;;24.76;60.83
20860;BME280;10590;48.154;11.514;2022-07-21T16:48:12;96093.69;;;24.51;61.61
20860;BME280;10590;48.154;11.514;2022-07-21T16:53:14;96089.06;;;24.33;62.36
20860;BME280;10590;48.154;11.514;2022-07-21T16:58:16;96099.09;;;24.72;60.91
20860;BME280;10590;48.154;11.514;2022-07-21T17:03:19;96082.94;;;24.74;61.60
20860;BME280;10590;48.154;11.514;2022-07-21T17:08:20;96098.41;;;24.54;62.57
20860;BME280;10590;48.154;11.514;2022-07-21T17:13:22;96088.34;;;24.15;63.66
20860;BME280;10590;48.154;11.514;2022-07-21T17:18:25;96085.94;;;24.17;64.23
20860;BME280;10590;48.154;11.514;2022-07-21T17:23:27;96082.84;;;24.11;65.01
20860;BME280;10590;48.154;11.514;2022-07-21T17:28:29;96076.13;;;24.16;64.77
20860;BME280;10590;48.154;11.514;2022-07-21T17:33:32;96084.75;;;24.25;63.89
20860;BME280;10590;48.154;11.514;2022-07-21T17:38:34;96085.25;;;24.06;63.96
20860;BME280;10590;48.154;11.514;2022-07-21T17:43:35;96082.09;;;24.00;64.80
20860;BME280;10590;48.154;11.514;2022-07-21T17:48:38;96087.66;;;23.86;64.87
20860;BME280;10590;48.154;11.514;2022-07-21T17:53:40;96086.84;;;23.85;64.56
20860;BME280;10590;48.154;11.514;2022-07-21T17:58:43;96088.47;;;23.83;63.25
20860;BME280;10590;48.154;11.514;2022-07-21T18:03:52;96080.22;;;23.68;63.27
20860;BME280;10590;48.154;11.514;2022-07-21T18:08:54;96087.59;;;23.96;63.22
20860;BME280;10590;48.154;11.514;2022-07-21T18:13:55;96073.53;;;23.76;64.48
20860;BME280;10590;48.154;11.514;2022-07-21T18:18:58;96087.69;;;23.50;65.80
20860;BME280;10590;48.154;11.514;2022-07-21T18:24:00;96083.00;;;23.33;67.51
20860;BME280;10590;48.154;11.514;2022-07-21T18:29:01;96089.69;;;23.32;69.53
20860;BME280;10590;48.154;11.514;2022-07-21T18:34:04;96085.38;;;23.16;70.66
20860;BME280;10590;48.154;11.514;2022-07-21T18:39:06;96090.09;;;23.19;70.19
20860;BME280;10590;48.154;11.514;2022-07-21T18:44:08;96079.88;;;23.06;70.94
20860;BME280;10590;48.154;11.514;2022-07-21T18:49:11;96081.84;;;23.05;70.82
20860;BME280;10590;48.154;11.514;2022-07-21T18:54:13;96090.44;;;22.75;72.15
20860;BME280;10590;48.154;11.514;2022-07-21T18:59:15;96079.81;;;22.66;73.24
20860;BME280;10590;48.154;11.514;2022-07-21T19:04:21;96079.81;;;22.59;73.13
20860;BME280;10590;48.154;11.514;2022-07-21T19:09:23;96094.75;;;22.69;72.40
20860;BME280;10590;48.154;11.514;2022-07-21T19:14:25;96096.63;;;22.36;72.92
20860;BME280;10590;48.154;11.514;2022-07-21T19:19:28;96100.06;;;22.15;75.22
20860;BME280;10590;48.154;11.514;2022-07-21T19:24:30;96098.97;;;22.30;73.98
20860;BME280;10590;48.154;11.514;2022-07-21T19:29:31;96115.22;;;21.91;76.64
20860;BME280;10590;48.154;11.514;2022-07-21T19:34:35;96112.59;;;22.09;76.04
20860;BME280;10590;48.154;11.514;2022-07-21T19:39:36;96119.16;;;21.90;77.21
20860;BME280;10590;48.154;11.514;2022-07-21T19:44:38;96122.72;;;21.98;76.94
20860;BME280;10590;48.154;11.514;2022-07-21T19:49:44;96120.09;;;21.50;79.63
20860;BME280;10590;48.154;11.514;2022-07-21T19:54:46;96120.59;;;21.70;79.28
20860;BME280;10590;48.154;11.514;2022-07-21T19:59:47;96124.47;;;21.65;79.26
20860;BME280;10590;48.154;11.514;2022-07-21T20:04:50;96120.84;;;21.47;80.88
20860;BME280;10590;48.154;11.514;2022-07-21T20:09:54;96122.53;;;21.62;79.86
20860;BME280;10590;48.154;11.514;2022-07-21T20:14:56;96123.22;;;21.52;80.97
20860;BME280;10590;48.154;11.514;2022-07-21T20:19:59;96124.75;;;21.49;81.48
20860;BME280;10590;48.154;11.514;2022-07-21T20:25:01;96120.09;;;21.50;81.83
20860;BME280;10590;48.154;11.514;2022-07-21T20:30:17;96115.69;;;21.35;83.28
20860;BME280;10590;48.154;11.514;2022-07-21T20:35:23;96107.66;;;21.15;84.66
20860;BME280;10590;48.154;11.514;2022-07-21T20:40:25;96113.59;;;21.24;83.90
20860;BME280;10590;48.154;11.514;2022-07-21T20:45:38;96116.25;;;21.14;85.29
20860;BME280;10590;48.154;11.514;2022-07-21T20:50:41;96115.09;;;21.15;85.15
20860;BME280;10590;48.154;11.514;2022-07-21T20:55:43;96121.94;;;20.91;86.11
20860;BME280;10590;48.154;11.514;2022-07-21T21:00:46;96117.19;;;20.84;86.36
20860;BME280;10590;48.154;11.514;2022-07-21T21:05:50;96115.59;;;20.83;86.18
20860;BME280;10590;48.154;11.514;2022-07-21T21:10:51;96121.72;;;20.69;87.04
20860;BME280;10590;48.154;11.514;2022-07-21T21:15:53;96123.38;;;20.77;86.18
20860;BME280;10590;48.154;11.514;2022-07-21T21:20:58;96125.66;;;20.72;86.44
20860;BME280;10590;48.154;11.514;2022-07-21T21:26:00;96126.34;;;20.62;87.50
20860;BME280;10590;48.154;11.514;2022-07-21T21:31:02;96114.53;;;20.54;88.05
20860;BME280;10590;48.154;11.514;2022-07-21T21:36:06;96120.03;;;20.57;88.14
20860;BME280;10590;48.154;11.514;2022-07-21T21:41:08;96117.16;;;20.47;89.34
20860;BME280;10590;48.154;11.514;2022-07-21T21:46:10;96114.28;;;20.32;90.13
20860;BME280;10590;48.154;11.514;2022-07-21T21:51:17;96120.41;;;20.22;90.86
20860;BME280;10590;48.154;11.514;2022-07-21T21:56:18;96122.00;;;20.27;90.40
20860;BME280;10590;48.154;11.514;2022-07-21T22:01:20;96126.50;;;20.12;91.10
20860;BME280;10590;48.154;11.514;2022-07-21T22:06:23;96120.78;;;19.91;92.50
20860;BME280;10590;48.154;11.514;2022-07-21T22:11:25;96115.66;;;19.85;92.90
20860;BME280;10590;48.154;11.514;2022-07-21T22:16:27;96121.81;;;20.09;91.54
20860;BME280;10590;48.154;11.514;2022-07-21T22:21:30;96106.97;;;20.10;90.63
20860;BME280;10590;48.154;11.514;2022-07-21T22:26:32;96113.47;;;19.45;95.04
20860;BME280;10590;48.154;11.514;2022-07-21T22:31:33;96111.34;;;19.58;94.62
20860;BME280;10590;48.154;11.514;2022-07-21T22:36:37;96103.41;;;19.76;92.58
20860;BME280;10590;48.154;11.514;2022-07-21T22:41:38;96105.25;;;19.68;93.10
20860;BME280;10590;48.154;11.514;2022-07-21T22:46:44;96108.03;;;19.72;92.41
20860;BME280;10590;48.154;11.514;2022-07-21T22:51:47;96104.06;;;19.66;92.18
20860;BME280;10590;48.154;11.514;2022-07-21T22:56:48;96103.81;;;19.51;93.01
20860;BME280;10590;48.154;11.514;2022-07-21T23:01:50;96107.19;;;19.41;93.87
20860;BME280;10590;48.154;11.514;2022-07-21T23:06:53;96102.72;;;19.29;94.40
20860;BME280;10590;48.154;11.514;2022-07-21T23:11:54;96102.31;;;19.27;94.11
20860;BME280;10590;48.154;11.514;2022-07-21T23:16:56;96099.63;;;19.31;93.62
20860;BME280;10590;48.154;11.514;2022-07-21T23:21:59;96097.56;;;19.24;93.78
20860;BME280;10590;48.154;11.514;2022-07-21T23:27:01;96097.50;;;19.21;94.56
20860;BME280;10590;48.154;11.514;2022-07-21T23:32:04;96097.13;;;18.96;96.16
20860;BME280;10590;48.154;11.514;2022-07-21T23:37:07;96087.38;;;18.95;96.47
20860;BME280;10590;48.154;11.514;2022-07-21T23:42:11;96098.50;;;18.86;97.09
20860;BME280;10590;48.154;11.514;2022-07-21T23:47:13;96091.47;;;18.85;96.54
20860;BME280;10590;48.154;11.514;2022-07-21T23:52:17;96092.69;;;18.87;95.89
20860;BME280;10590;48.154;11.514;2022-07-21T23:57:18;96082.53;;;18.65;97.09
